Time;durP1;ratioP1;P1;durP2;ratioP2;P2;SDS_P1;SDS_P2;PMS_P1;PMS_P2;Temp;Humidity;BMP_temperature;BMP_pressure;BME280_temperature;BME280_humidity;BME280_pressure;Samples;Min_cycle;Max_cycle;Signal;HPM_P1;HPM_P2
2021/05/25 00:01:06;;;;;;;2.87;0.60;;;;;;;;;;4954217;29;20835;-71
2021/05/25 00:06:35;;;;;;;0.77;0.77;;;;;;;;;;4954379;29;20530;-72
2021/05/25 00:09:01;;;;;;;0.97;0.60;;;;;;;;;;4954086;29;20427;-73
2021/05/25 00:11:27;;;;;;;1.23;0.70;;;;;;;;;;4937030;29;20442;-72
2021/05/25 00:13:53;;;;;;;3.63;0.80;;;;;;;;;;4953994;29;20424;-71
2021/05/25 00:16:20;;;;;;;1.20;0.70;;;;;;;;;;4954431;29;20763;-71
2021/05/25 00:21:49;;;;;;;1.67;0.60;;;;;;;;;;4954183;29;21036;-72
2021/05/25 00:24:15;;;;;;;0.80;0.60;;;;;;;;;;4954150;29;20447;-71
2021/05/25 00:26:41;;;;;;;0.90;0.70;;;;;;;;;;4954146;29;20443;-71
2021/05/25 00:29:07;;;;;;;1.03;0.77;;;;;;;;;;4954049;29;20411;-70
2021/05/25 00:31:33;;;;;;;1.33;0.70;;;;;;;;;;4954131;29;20424;-72
2021/05/25 00:37:03;;;;;;;0.50;0.50;;;;;;;;;;4954182;29;20418;-69
2021/05/25 00:39:28;;;;;;;1.60;0.93;;;;;;;;;;4953900;29;20418;-70
2021/05/25 00:41:54;;;;;;;3.10;0.83;;;;;;;;;;4954113;29;20466;-73
2021/05/25 00:44:20;;;;;;;1.30;0.73;;;;;;;;;;4953993;29;20420;-70
2021/05/25 00:46:46;;;;;;;0.70;0.70;;;;;;;;;;4954276;29;20422;-70
2021/05/25 00:49:12;;;;;;;0.67;0.60;;;;;;;;;;4953704;29;20427;-72
2021/05/25 00:51:39;;;;;;;1.00;0.90;;;;;;;;;;4936749;29;20451;-71
2021/05/25 00:54:05;;;;;;;0.83;0.83;;;;;;;;;;4954108;29;20498;-70
2021/05/25 00:56:32;;;;;;;6.50;0.73;;;;;;;;;;4953853;29;20508;-71
2021/05/25 00:58:58;;;;;;;0.90;0.80;;;;;;;;;;4953818;29;20509;-74
2021/05/25 01:01:24;;;;;;;0.50;0.40;;;;;;;;;;4953759;29;21065;-71
2021/05/25 01:06:54;;;;;;;2.50;0.73;;;;;;;;;;4957278;29;20526;-71
2021/05/25 01:09:20;;;;;;;1.10;0.77;;;;;;;;;;4957188;29;20519;-70
2021/05/25 01:11:46;;;;;;;1.60;0.63;;;;;;;;;;4957217;29;20420;-71
2021/05/25 01:14:13;;;;;;;2.23;0.70;;;;;;;;;;4957426;29;20431;-70
2021/05/25 01:16:39;;;;;;;1.27;0.80;;;;;;;;;;4957480;29;20830;-71
2021/05/25 01:22:08;;;;;;;0.93;0.90;;;;;;;;;;4957247;29;20899;-71
2021/05/25 01:24:34;;;;;;;0.93;0.87;;;;;;;;;;4957170;29;20460;-72
2021/05/25 01:27:04;;;;;;;1.00;0.60;;;;;;;;;;4939844;29;20487;-73
2021/05/25 01:29:30;;;;;;;2.10;0.90;;;;;;;;;;4957240;29;20454;-70
2021/05/25 01:31:56;;;;;;;3.30;1.43;;;;;;;;;;4956964;29;20423;-70
2021/05/25 01:34:23;;;;;;;0.53;0.43;;;;;;;;;;4956956;29;20423;-71
2021/05/25 01:36:49;;;;;;;2.10;0.70;;;;;;;;;;4957179;29;20435;-71
2021/05/25 01:39:15;;;;;;;2.65;1.40;;;;;;;;;;4956947;29;20755;-72
2021/05/25 01:41:41;;;;;;;1.30;0.85;;;;;;;;;;4956943;29;20207;-72
2021/05/25 01:44:07;;;;;;;0.90;0.70;;;;;;;;;;4956642;29;20683;-71
2021/05/25 01:46:33;;;;;;;0.80;0.70;;;;;;;;;;4956693;29;20407;-71
2021/05/25 01:52:03;;;;;;;1.30;0.70;;;;;;;;;;4956703;29;20450;-70
2021/05/25 01:54:29;;;;;;;1.80;0.82;;;;;;;;;;4956563;29;20419;-71
2021/05/25 01:56:55;;;;;;;1.57;0.77;;;;;;;;;;4956531;29;20545;-72
2021/05/25 01:59:21;;;;;;;0.97;0.70;;;;;;;;;;4956289;29;20993;-72
2021/05/25 02:01:47;;;;;;;1.10;0.87;;;;;;;;;;4956303;29;20542;-71
2021/05/25 02:07:19;;;;;;;0.80;0.80;;;;;;;;;;4937328;29;20431;-71
2021/05/25 02:09:45;;;;;;;1.40;0.95;;;;;;;;;;4937405;29;20444;-71
2021/05/25 02:12:16;;;;;;;2.20;0.67;;;;;;;;;;4937238;29;20204;-72
2021/05/25 02:14:42;;;;;;;2.47;0.77;;;;;;;;;;4937090;29;20439;-71
2021/05/25 02:17:08;;;;;;;1.80;0.87;;;;;;;;;;4936276;29;20412;-71
2021/05/25 02:19:34;;;;;;;0.83;0.70;;;;;;;;;;4936640;29;20421;-72
2021/05/25 02:21:59;;;;;;;1.17;0.90;;;;;;;;;;4936810;29;20475;-71
2021/05/25 02:24:25;;;;;;;2.20;0.87;;;;;;;;;;4936647;29;20825;-72
2021/05/25 02:26:52;;;;;;;1.50;0.63;;;;;;;;;;4936421;29;20464;-71
2021/05/25 02:29:18;;;;;;;2.80;0.70;;;;;;;;;;4936751;29;20420;-72
2021/05/25 02:31:44;;;;;;;0.90;0.80;;;;;;;;;;4936646;29;20495;-72
2021/05/25 02:37:13;;;;;;;1.60;0.53;;;;;;;;;;4936479;29;20499;-72
2021/05/25 02:39:39;;;;;;;4.90;0.67;;;;;;;;;;4936489;29;20476;-71
2021/05/25 02:42:05;;;;;;;2.50;0.77;;;;;;;;;;4936265;29;20464;-69
2021/05/25 02:44:31;;;;;;;0.70;0.60;;;;;;;;;;4936415;29;20494;-71
2021/05/25 02:46:57;;;;;;;0.70;0.50;;;;;;;;;;4936290;29;20215;-71
2021/05/25 02:52:26;;;;;;;3.37;0.73;;;;;;;;;;4936249;29;20415;-70
2021/05/25 02:54:52;;;;;;;0.83;0.60;;;;;;;;;;4936211;29;20829;-71
2021/05/25 02:57:18;;;;;;;0.80;0.70;;;;;;;;;;4919094;29;20428;-71
2021/05/25 02:59:44;;;;;;;3.20;0.93;;;;;;;;;;4936169;29;20425;-70
2021/05/25 03:02:10;;;;;;;0.90;0.90;;;;;;;;;;4936131;29;20558;-72
2021/05/25 03:07:40;;;;;;;8.20;1.13;;;;;;;;;;4955266;29;20445;-71
2021/05/25 03:10:07;;;;;;;2.93;0.77;;;;;;;;;;4955042;29;20519;-70
2021/05/25 03:12:34;;;;;;;1.43;0.80;;;;;;;;;;4955083;29;20421;-72
2021/05/25 03:15:00;;;;;;;1.88;1.05;;;;;;;;;;4955216;29;20512;-71
2021/05/25 03:17:26;;;;;;;3.90;1.03;;;;;;;;;;4954881;29;20184;-72
2021/05/25 03:19:52;;;;;;;1.17;0.67;;;;;;;;;;4954768;29;20514;-71
2021/05/25 03:22:18;;;;;;;2.13;1.03;;;;;;;;;;4954909;29;20531;-72
2021/05/25 03:24:44;;;;;;;1.33;1.03;;;;;;;;;;4954828;29;20516;-71
2021/05/25 03:27:10;;;;;;;0.80;0.60;;;;;;;;;;4954720;28;20427;-70
2021/05/25 03:29:36;;;;;;;1.90;1.20;;;;;;;;;;4954190;29;20760;-71
2021/05/25 03:32:02;;;;;;;2.47;0.90;;;;;;;;;;4954706;29;20435;-71
2021/05/25 03:37:32;;;;;;;2.15;0.88;;;;;;;;;;4954993;29;20214;-70
2021/05/25 03:39:58;;;;;;;4.65;0.82;;;;;;;;;;4954628;29;20631;-71
2021/05/25 03:42:24;;;;;;;1.95;0.75;;;;;;;;;;4954488;29;20216;-71
2021/05/25 03:44:50;;;;;;;2.00;0.90;;;;;;;;;;4954650;29;20171;-71
2021/05/25 03:47:18;;;;;;;1.05;0.55;;;;;;;;;;4954605;29;20763;-72
2021/05/25 03:52:51;;;;;;;1.77;0.90;;;;;;;;;;4954797;29;20176;-72
2021/05/25 03:55:32;;;;;;;1.48;0.60;;;;;;;;;;4954506;29;20183;-70
2021/05/25 04:00:44;;;;;;;0.80;0.80;;;;;;;;;;4954617;29;20198;-73
2021/05/25 04:03:10;;;;;;;4.95;0.98;;;;;;;;;;4954557;29;20477;-70
2021/05/25 04:05:36;;;;;;;2.67;0.70;;;;;;;;;;4954039;29;20761;-71
2021/05/25 04:08:02;;;;;;;3.45;0.70;;;;;;;;;;4954259;29;20423;-71
2021/05/25 04:10:28;;;;;;;0.90;0.60;;;;;;;;;;4937154;29;20206;-71
2021/05/25 04:12:54;;;;;;;0.60;0.60;;;;;;;;;;4954320;29;20419;-72
2021/05/25 04:15:23;;;;;;;0.40;0.30;;;;;;;;;;4954261;29;20414;-69
2021/05/25 04:17:49;;;;;;;2.05;0.63;;;;;;;;;;4953308;29;20680;-72
2021/05/25 04:20:16;;;;;;;2.90;0.60;;;;;;;;;;4954043;29;20273;-71
2021/05/25 04:22:42;;;;;;;1.10;0.77;;;;;;;;;;4954169;29;20206;-71
2021/05/25 04:25:08;;;;;;;0.80;0.50;;;;;;;;;;4954179;29;20417;-72
2021/05/25 04:27:34;;;;;;;1.10;1.00;;;;;;;;;;4953646;29;20434;-71
2021/05/25 04:30:00;;;;;;;0.70;0.60;;;;;;;;;;4954227;29;20416;-71
2021/05/25 04:32:26;;;;;;;0.40;0.30;;;;;;;;;;4953548;29;20589;-70
2021/05/25 04:37:58;;;;;;;0.63;0.50;;;;;;;;;;4952596;29;20191;-71
2021/05/25 04:40:24;;;;;;;1.33;0.40;;;;;;;;;;4938048;29;20522;-71
2021/05/25 04:42:50;;;;;;;0.90;0.50;;;;;;;;;;4955923;29;20483;-71
2021/05/25 04:45:16;;;;;;;2.20;0.73;;;;;;;;;;4939043;29;20981;-71
2021/05/25 04:47:42;;;;;;;0.40;0.40;;;;;;;;;;4938683;29;20789;-71
2021/05/25 04:50:09;;;;;;;0.40;0.40;;;;;;;;;;4955774;29;20446;-71
2021/05/25 04:52:35;;;;;;;1.43;0.43;;;;;;;;;;4956091;29;20541;-70
2021/05/25 04:55:02;;;;;;;6.53;0.90;;;;;;;;;;4956188;29;20507;-70
2021/05/25 04:57:29;;;;;;;2.37;0.60;;;;;;;;;;4955937;29;20498;-74
2021/05/25 04:59:55;;;;;;;0.90;0.27;;;;;;;;;;4955861;29;20411;-71
2021/05/25 05:02:22;;;;;;;2.30;0.30;;;;;;;;;;4955650;29;20473;-71
2021/05/25 05:04:48;;;;;;;0.80;0.47;;;;;;;;;;4938813;29;20535;-71
2021/05/25 05:07:14;;;;;;;0.50;0.40;;;;;;;;;;4938431;29;20489;-71
2021/05/25 05:09:40;;;;;;;1.30;0.70;;;;;;;;;;4956055;29;20524;-70
2021/05/25 05:12:06;;;;;;;1.13;0.50;;;;;;;;;;4956067;29;20428;-71
2021/05/25 05:14:34;;;;;;;0.93;0.40;;;;;;;;;;4956136;29;20814;-71
2021/05/25 05:17:00;;;;;;;0.87;0.50;;;;;;;;;;4956600;29;20427;-69
2021/05/25 05:19:26;;;;;;;0.60;0.50;;;;;;;;;;4957420;29;20440;-70
2021/05/25 05:21:54;;;;;;;2.30;0.40;;;;;;;;;;4957341;29;20977;-72
2021/05/25 05:24:20;;;;;;;1.27;0.60;;;;;;;;;;4940046;29;20511;-70
2021/05/25 05:26:46;;;;;;;0.50;0.50;;;;;;;;;;4957521;29;20423;-72
2021/05/25 05:29:13;;;;;;;0.70;0.50;;;;;;;;;;4939746;29;20444;-70
2021/05/25 05:31:39;;;;;;;0.77;0.50;;;;;;;;;;4956672;29;20441;-71
2021/05/25 05:34:05;;;;;;;2.77;0.63;;;;;;;;;;4955870;29;20462;-72
2021/05/25 05:36:31;;;;;;;2.80;0.40;;;;;;;;;;4955868;29;20913;-71
2021/05/25 05:38:57;;;;;;;0.60;0.40;;;;;;;;;;4956071;29;20477;-71
2021/05/25 05:41:23;;;;;;;1.93;0.50;;;;;;;;;;4955736;29;20469;-70
2021/05/25 05:43:49;;;;;;;0.80;0.40;;;;;;;;;;4955737;29;20525;-70
2021/05/25 05:46:16;;;;;;;4.10;0.70;;;;;;;;;;4955556;29;20890;-70
2021/05/25 05:48:42;;;;;;;0.50;0.43;;;;;;;;;;4955872;29;20427;-70
2021/05/25 05:51:08;;;;;;;0.60;0.60;;;;;;;;;;4954448;28;20415;-70
2021/05/25 05:53:34;;;;;;;0.80;0.53;;;;;;;;;;4955695;29;20472;-72
2021/05/25 05:56:00;;;;;;;1.53;0.50;;;;;;;;;;4955504;29;20416;-72
2021/05/25 05:58:26;;;;;;;0.93;0.40;;;;;;;;;;4955540;29;20446;-71
2021/05/25 06:00:52;;;;;;;1.80;0.60;;;;;;;;;;4955428;29;20416;-71
2021/05/25 06:03:19;;;;;;;0.93;0.70;;;;;;;;;;4955720;29;20788;-70
2021/05/25 06:05:46;;;;;;;1.50;0.50;;;;;;;;;;4937889;29;20537;-71
2021/05/25 06:08:13;;;;;;;1.17;0.50;;;;;;;;;;4955595;29;20431;-71
2021/05/25 06:10:43;;;;;;;0.60;0.40;;;;;;;;;;4955516;29;20482;-71
2021/05/25 06:13:09;;;;;;;2.43;0.60;;;;;;;;;;4955545;29;20428;-71
2021/05/25 06:15:36;;;;;;;1.50;0.50;;;;;;;;;;4954882;29;20466;-68
2021/05/25 06:18:02;;;;;;;1.37;0.70;;;;;;;;;;4956196;29;20455;-72
2021/05/25 06:23:32;;;;;;;2.30;0.73;;;;;;;;;;4956185;29;20487;-71
2021/05/25 06:25:59;;;;;;;2.07;0.57;;;;;;;;;;4955753;29;20415;-72
2021/05/25 06:28:25;;;;;;;1.47;0.80;;;;;;;;;;4956530;29;20478;-71
2021/05/25 06:30:52;;;;;;;1.23;0.50;;;;;;;;;;4954561;29;20414;-70
2021/05/25 06:33:18;;;;;;;0.67;0.60;;;;;;;;;;4954462;29;20598;-71
2021/05/25 06:38:47;;;;;;;3.83;1.23;;;;;;;;;;4954021;29;20468;-71
2021/05/25 06:41:13;;;;;;;0.43;0.40;;;;;;;;;;4954225;29;20817;-73
2021/05/25 06:43:39;;;;;;;1.07;0.60;;;;;;;;;;4936925;29;20438;-72
2021/05/25 06:46:07;;;;;;;2.47;0.60;;;;;;;;;;4953658;29;20440;-70
2021/05/25 06:48:33;;;;;;;2.00;0.57;;;;;;;;;;4954258;29;20447;-74
2021/05/25 06:51:00;;;;;;;0.93;0.60;;;;;;;;;;4953788;29;20795;-69
2021/05/25 06:53:26;;;;;;;1.00;0.70;;;;;;;;;;4953938;29;20780;-71
2021/05/25 06:55:53;;;;;;;4.43;0.90;;;;;;;;;;4953721;29;20432;-72
2021/05/25 06:58:19;;;;;;;2.67;1.47;;;;;;;;;;4936771;29;20437;-71
2021/05/25 07:00:44;;;;;;;1.57;0.67;;;;;;;;;;4936103;29;21036;-70
2021/05/25 07:03:10;;;;;;;0.97;0.60;;;;;;;;;;4952074;28;20586;-71
2021/05/25 07:08:40;;;;;;;2.00;0.70;;;;;;;;;;4953492;29;20416;-71
2021/05/25 07:11:06;;;;;;;0.77;0.40;;;;;;;;;;4953669;29;20486;-70
2021/05/25 07:13:32;;;;;;;2.17;0.70;;;;;;;;;;4953414;29;20451;-71
2021/05/25 07:15:58;;;;;;;0.93;0.43;;;;;;;;;;4954747;29;20514;-70
2021/05/25 07:18:24;;;;;;;1.60;0.40;;;;;;;;;;4954612;29;21009;-71
2021/05/25 07:23:54;;;;;;;2.80;0.50;;;;;;;;;;4950843;29;20486;-73
2021/05/25 07:26:20;;;;;;;1.40;0.70;;;;;;;;;;4951327;29;20917;-72
2021/05/25 07:28:46;;;;;;;1.00;0.60;;;;;;;;;;4953037;29;20421;-70
2021/05/25 07:31:12;;;;;;;0.53;0.40;;;;;;;;;;4951663;29;20433;-72
2021/05/25 07:33:39;;;;;;;1.27;0.60;;;;;;;;;;4934273;29;20427;-71
2021/05/25 07:39:08;;;;;;;0.40;0.30;;;;;;;;;;4951351;29;20433;-69
2021/05/25 07:41:35;;;;;;;1.00;0.50;;;;;;;;;;4952649;29;20581;-70
2021/05/25 07:44:01;;;;;;;0.93;0.53;;;;;;;;;;4935647;29;20437;-69
2021/05/25 07:46:28;;;;;;;1.00;0.40;;;;;;;;;;4953005;29;20521;-71
2021/05/25 07:48:54;;;;;;;1.20;0.50;;;;;;;;;;4935021;29;20441;-71
2021/05/25 07:54:24;;;;;;;0.93;0.53;;;;;;;;;;4951087;29;20794;-71
2021/05/25 07:56:50;;;;;;;4.43;1.20;;;;;;;;;;4951375;29;20447;-70
2021/05/25 07:59:16;;;;;;;2.43;0.70;;;;;;;;;;4951394;29;20466;-71
2021/05/25 08:01:42;;;;;;;2.43;0.60;;;;;;;;;;4951462;29;20539;-70
2021/05/25 08:04:08;;;;;;;0.67;0.40;;;;;;;;;;4951446;29;20477;-76
2021/05/25 08:09:41;;;;;;;1.60;0.40;;;;;;;;;;4952627;29;20985;-71
2021/05/25 08:12:07;;;;;;;1.57;0.43;;;;;;;;;;4952780;29;20449;-72
2021/05/25 08:14:34;;;;;;;0.80;0.50;;;;;;;;;;4954563;28;20439;-69
2021/05/25 08:17:17;;;;;;;1.13;0.60;;;;;;;;;;4957721;29;20588;-69
2021/05/25 08:19:44;;;;;;;1.03;0.57;;;;;;;;;;4957542;29;20938;-70
2021/05/25 08:22:10;;;;;;;1.07;0.50;;;;;;;;;;4940551;29;20487;-71
2021/05/25 08:24:36;;;;;;;2.80;0.50;;;;;;;;;;4957943;29;20410;-72
2021/05/25 08:27:02;;;;;;;1.33;0.60;;;;;;;;;;4957753;29;20423;-70
2021/05/25 08:29:29;;;;;;;1.67;0.47;;;;;;;;;;4957270;29;20410;-70
2021/05/25 08:31:55;;;;;;;1.47;0.63;;;;;;;;;;4954687;29;20743;-71
2021/05/25 08:34:21;;;;;;;3.70;0.50;;;;;;;;;;4938413;29;20489;-71
2021/05/25 08:39:50;;;;;;;1.37;0.40;;;;;;;;;;4955672;29;20429;-73
2021/05/25 08:42:16;;;;;;;1.50;0.40;;;;;;;;;;4955353;29;20475;-70
2021/05/25 08:44:42;;;;;;;2.10;0.63;;;;;;;;;;4955342;29;20418;-72
2021/05/25 08:47:08;;;;;;;2.00;0.87;;;;;;;;;;4938282;29;20932;-71
2021/05/25 08:55:46;;;;;;;0.70;0.57;;;;;;;;;;4955218;29;20554;-71
2021/05/25 08:58:12;;;;;;;1.97;0.40;;;;;;;;;;4955553;29;20914;-72
2021/05/25 09:00:38;;;;;;;1.00;0.30;;;;;;;;;;4955170;29;20427;-72
2021/05/25 09:03:04;;;;;;;0.77;0.57;;;;;;;;;;4955379;29;20470;-71
2021/05/25 09:05:31;;;;;;;0.63;0.27;;;;;;;;;;4954715;29;20754;-70
2021/05/25 09:07:58;;;;;;;1.57;0.70;;;;;;;;;;4954845;29;20423;-72
2021/05/25 09:10:35;;;;;;;0.53;0.30;;;;;;;;;;4954368;29;20494;-70
2021/05/25 09:13:04;;;;;;;1.90;0.50;;;;;;;;;;4936860;29;20471;-71
2021/05/25 09:15:31;;;;;;;1.27;0.43;;;;;;;;;;4955663;29;20740;-71
2021/05/25 09:18:08;;;;;;;2.00;0.50;;;;;;;;;;4955969;29;20427;-74
2021/05/25 09:21:00;;;;;;;3.60;0.97;;;;;;;;;;4955941;29;20430;-72
2021/05/25 09:23:35;;;;;;;1.80;0.60;;;;;;;;;;4954206;29;20461;-71
2021/05/25 09:26:05;;;;;;;1.30;0.60;;;;;;;;;;4954879;28;20419;-71
2021/05/25 09:28:32;;;;;;;2.10;0.67;;;;;;;;;;4954989;29;20427;-70
2021/05/25 09:30:58;;;;;;;0.93;0.60;;;;;;;;;;4954226;29;20470;-70
2021/05/25 09:33:24;;;;;;;1.87;0.40;;;;;;;;;;4954350;29;20430;-73
2021/05/25 09:35:52;;;;;;;5.73;1.33;;;;;;;;;;4952995;29;20419;-73
2021/05/25 09:38:19;;;;;;;2.57;0.63;;;;;;;;;;4936681;29;20438;-72
2021/05/25 09:40:49;;;;;;;0.97;0.53;;;;;;;;;;4954533;29;20817;-71
2021/05/25 09:43:27;;;;;;;0.90;0.70;;;;;;;;;;4954317;29;20471;-71
2021/05/25 09:45:55;;;;;;;1.83;0.53;;;;;;;;;;4954704;29;20427;-73
2021/05/25 09:48:26;;;;;;;2.53;0.57;;;;;;;;;;4953999;29;20470;-72
2021/05/25 09:50:55;;;;;;;2.40;0.57;;;;;;;;;;4937247;29;20810;-73
2021/05/25 09:53:23;;;;;;;2.10;0.77;;;;;;;;;;4954448;29;20424;-71
2021/05/25 09:55:49;;;;;;;0.77;0.53;;;;;;;;;;4954144;29;20424;-70
2021/05/25 09:58:15;;;;;;;1.37;0.40;;;;;;;;;;4953940;29;20420;-72
2021/05/25 10:00:44;;;;;;;0.67;0.40;;;;;;;;;;4954084;29;20486;-71
2021/05/25 10:03:14;;;;;;;0.50;0.40;;;;;;;;;;4953933;29;20788;-70
2021/05/25 10:05:41;;;;;;;6.17;0.70;;;;;;;;;;4953736;28;20836;-71
2021/05/25 10:08:07;;;;;;;2.40;0.73;;;;;;;;;;4953561;29;20431;-70
2021/05/25 10:10:34;;;;;;;3.90;1.00;;;;;;;;;;4953608;29;20412;-72
2021/05/25 10:13:00;;;;;;;3.23;0.77;;;;;;;;;;4953805;29;20427;-71
2021/05/25 10:15:28;;;;;;;0.63;0.50;;;;;;;;;;4954914;29;20423;-72
2021/05/25 10:20:23;;;;;;;1.83;0.83;;;;;;;;;;4953668;29;20514;-74
2021/05/25 10:22:49;;;;;;;2.13;0.40;;;;;;;;;;4954440;29;20502;-73
2021/05/25 10:25:18;;;;;;;3.00;0.60;;;;;;;;;;4954544;29;20420;-71
2021/05/25 10:27:47;;;;;;;0.60;0.40;;;;;;;;;;4953813;29;20457;-74
2021/05/25 10:30:22;;;;;;;0.60;0.50;;;;;;;;;;4936162;29;20428;-73
2021/05/25 10:32:49;;;;;;;2.23;0.80;;;;;;;;;;4952825;29;20875;-72
2021/05/25 10:35:18;;;;;;;3.07;0.93;;;;;;;;;;4952462;29;20552;-73
2021/05/25 10:40:49;;;;;;;1.10;0.63;;;;;;;;;;4952430;29;20500;-71
2021/05/25 10:43:33;;;;;;;2.10;0.40;;;;;;;;;;4953276;29;20466;-71
2021/05/25 10:46:11;;;;;;;4.10;0.70;;;;;;;;;;4952188;29;20426;-74
2021/05/25 10:48:50;;;;;;;8.07;1.00;;;;;;;;;;4952769;29;20422;-71
2021/05/25 10:51:16;;;;;;;1.37;0.50;;;;;;;;;;4953292;29;20421;-71
2021/05/25 10:53:43;;;;;;;2.40;0.83;;;;;;;;;;4954058;29;20745;-71
2021/05/25 10:56:23;;;;;;;1.50;0.80;;;;;;;;;;4952326;29;20773;-72
2021/05/25 10:58:59;;;;;;;4.13;1.00;;;;;;;;;;4953228;29;20474;-74
2021/05/25 11:01:31;;;;;;;3.50;0.60;;;;;;;;;;4952695;29;20490;-72
2021/05/25 11:04:07;;;;;;;2.40;0.87;;;;;;;;;;4952711;29;20432;-72
2021/05/25 11:06:33;;;;;;;3.43;0.73;;;;;;;;;;4952629;28;20497;-72
2021/05/25 11:09:18;;;;;;;2.30;0.53;;;;;;;;;;4953424;29;20424;-72
2021/05/25 11:11:44;;;;;;;1.27;0.60;;;;;;;;;;4953259;29;20508;-72
2021/05/25 11:14:12;;;;;;;2.00;0.70;;;;;;;;;;4954658;29;20519;-72
2021/05/25 11:16:40;;;;;;;1.37;0.70;;;;;;;;;;4954624;29;20419;-72
2021/05/25 11:19:07;;;;;;;3.27;0.60;;;;;;;;;;4954446;29;20485;-72
2021/05/25 11:24:35;;;;;;;1.90;0.80;;;;;;;;;;4954433;29;20850;-78
2021/05/25 11:27:04;;;;;;;0.70;0.67;;;;;;;;;;4952920;29;20430;-78
2021/05/25 11:29:30;;;;;;;2.80;0.90;;;;;;;;;;4935112;29;20734;-77
2021/05/25 11:31:58;;;;;;;2.50;0.90;;;;;;;;;;4952792;29;20420;-79
2021/05/25 11:34:25;;;;;;;5.00;1.10;;;;;;;;;;4952438;29;20847;-77
2021/05/25 11:36:58;;;;;;;1.53;0.67;;;;;;;;;;4952679;29;20411;-78
2021/05/25 11:39:25;;;;;;;3.43;1.37;;;;;;;;;;4935396;29;20436;-78
2021/05/25 11:41:51;;;;;;;2.33;1.33;;;;;;;;;;4935120;29;20578;-77
2021/05/25 11:44:20;;;;;;;1.70;0.67;;;;;;;;;;4952397;29;20410;-78
2021/05/25 11:46:46;;;;;;;0.87;0.70;;;;;;;;;;4952724;29;20420;-77
2021/05/25 11:49:15;;;;;;;2.43;0.57;;;;;;;;;;4951956;28;20977;-77
2021/05/25 11:51:42;;;;;;;1.40;1.07;;;;;;;;;;4952290;29;20422;-78
2021/05/25 11:54:12;;;;;;;2.87;0.70;;;;;;;;;;4952248;29;20418;-76
2021/05/25 11:56:39;;;;;;;0.83;0.53;;;;;;;;;;4951440;29;20414;-77
2021/05/25 11:59:11;;;;;;;2.83;0.70;;;;;;;;;;4952139;29;20502;-79
2021/05/25 12:01:41;;;;;;;1.67;1.43;;;;;;;;;;4952202;29;20584;-78
2021/05/25 12:04:08;;;;;;;4.80;1.00;;;;;;;;;;4952412;29;20423;-78
2021/05/25 12:06:34;;;;;;;2.33;0.60;;;;;;;;;;4951504;28;20842;-77
2021/05/25 12:09:13;;;;;;;1.43;0.80;;;;;;;;;;4952194;29;20520;-78
2021/05/25 12:11:41;;;;;;;0.83;0.60;;;;;;;;;;4935699;29;20428;-76
2021/05/25 12:14:07;;;;;;;1.73;0.80;;;;;;;;;;4953970;29;20758;-77
2021/05/25 12:16:34;;;;;;;4.60;0.97;;;;;;;;;;4953645;29;20917;-77
2021/05/25 12:19:00;;;;;;;4.83;1.07;;;;;;;;;;4953741;29;20426;-76
2021/05/25 12:21:26;;;;;;;0.83;0.70;;;;;;;;;;4953404;29;20809;-78
2021/05/25 12:23:52;;;;;;;1.70;0.80;;;;;;;;;;4953436;29;20430;-77
2021/05/25 12:26:28;;;;;;;2.10;0.60;;;;;;;;;;4952273;29;20838;-76
2021/05/25 12:28:55;;;;;;;1.70;0.70;;;;;;;;;;4952063;29;20427;-77
2021/05/25 12:31:21;;;;;;;1.33;0.80;;;;;;;;;;4951848;29;20404;-77
2021/05/25 12:33:51;;;;;;;2.60;1.00;;;;;;;;;;4952277;29;20415;-77
2021/05/25 12:36:17;;;;;;;0.67;0.40;;;;;;;;;;4934803;29;20641;-77
2021/05/25 12:41:47;;;;;;;1.23;0.83;;;;;;;;;;4951633;29;20458;-77
2021/05/25 12:44:15;;;;;;;2.00;1.50;;;;;;;;;;4951850;29;20851;-78
2021/05/25 12:47:03;;;;;;;0.90;0.60;;;;;;;;;;4935287;29;20427;-78
2021/05/25 12:49:30;;;;;;;1.00;0.67;;;;;;;;;;4952019;29;20771;-78
2021/05/25 12:52:18;;;;;;;4.87;0.70;;;;;;;;;;4951777;29;20423;-76
2021/05/25 12:54:58;;;;;;;1.13;0.50;;;;;;;;;;4952040;29;20427;-77
2021/05/25 12:57:41;;;;;;;1.00;0.87;;;;;;;;;;4951874;29;20902;-78
2021/05/25 13:00:08;;;;;;;0.90;0.60;;;;;;;;;;4952192;28;20818;-77
2021/05/25 13:02:43;;;;;;;1.13;0.53;;;;;;;;;;4955191;29;20664;-79
2021/05/25 13:05:11;;;;;;;1.50;1.33;;;;;;;;;;4937092;29;20546;-78
2021/05/25 13:07:52;;;;;;;0.40;0.40;;;;;;;;;;4937325;29;20842;-74
2021/05/25 13:10:23;;;;;;;2.10;0.70;;;;;;;;;;4938343;29;20494;-76
2021/05/25 13:12:49;;;;;;;1.07;0.50;;;;;;;;;;4956249;29;20420;-75
2021/05/25 13:15:16;;;;;;;2.43;0.50;;;;;;;;;;4954949;29;20415;-76
2021/05/25 13:17:55;;;;;;;1.33;0.80;;;;;;;;;;4956168;29;20428;-76
2021/05/25 13:20:24;;;;;;;1.13;0.67;;;;;;;;;;4956096;29;20435;-76
2021/05/25 13:22:51;;;;;;;1.33;0.60;;;;;;;;;;4956196;29;20475;-78
2021/05/25 13:25:17;;;;;;;1.13;0.40;;;;;;;;;;4954968;29;20432;-77
2021/05/25 13:27:52;;;;;;;2.00;0.77;;;;;;;;;;4954528;29;20485;-77
2021/05/25 13:30:30;;;;;;;0.50;0.50;;;;;;;;;;4954486;29;20422;-79
2021/05/25 13:32:57;;;;;;;1.53;0.77;;;;;;;;;;4953450;29;20452;-70
2021/05/25 13:35:23;;;;;;;1.00;0.70;;;;;;;;;;4953584;29;20866;-69
2021/05/25 13:37:49;;;;;;;3.03;0.80;;;;;;;;;;4953298;29;20419;-69
2021/05/25 13:40:16;;;;;;;2.23;0.70;;;;;;;;;;4953874;29;20864;-71
2021/05/25 13:42:41;;;;;;;1.13;0.70;;;;;;;;;;4951849;29;20475;-70
2021/05/25 13:45:08;;;;;;;0.50;0.30;;;;;;;;;;4953489;29;20418;-69
2021/05/25 13:47:34;;;;;;;1.97;0.97;;;;;;;;;;4953392;29;20422;-69
2021/05/25 13:50:00;;;;;;;2.10;0.87;;;;;;;;;;4953027;29;20958;-69
2021/05/25 13:52:26;;;;;;;3.40;2.50;;;;;;;;;;4953142;29;20443;-70
2021/05/25 13:54:53;;;;;;;2.73;0.80;;;;;;;;;;4952955;29;20416;-70
2021/05/25 13:57:24;;;;;;;1.83;0.53;;;;;;;;;;4953519;29;20530;-69
2021/05/25 14:02:28;;;;;;;1.00;0.70;;;;;;;;;;4954513;29;20550;-70
2021/05/25 14:04:54;;;;;;;1.33;0.73;;;;;;;;;;4953929;28;20459;-70
2021/05/25 14:07:23;;;;;;;1.93;0.63;;;;;;;;;;4953922;29;20471;-70
2021/05/25 14:09:49;;;;;;;2.27;0.60;;;;;;;;;;4954823;29;20454;-69
2021/05/25 14:12:15;;;;;;;3.47;1.53;;;;;;;;;;4938073;29;20463;-68
2021/05/25 14:14:41;;;;;;;1.70;0.50;;;;;;;;;;4955156;29;20436;-68
2021/05/25 14:17:07;;;;;;;1.67;0.63;;;;;;;;;;4955415;29;20424;-69
2021/05/25 14:19:33;;;;;;;2.33;1.00;;;;;;;;;;4955267;29;20454;-69
2021/05/25 14:21:59;;;;;;;2.60;0.50;;;;;;;;;;4953442;29;20864;-68
2021/05/25 14:27:28;;;;;;;1.30;0.77;;;;;;;;;;4953616;29;20419;-68
2021/05/25 14:29:55;;;;;;;1.70;0.80;;;;;;;;;;4953700;29;20426;-70
2021/05/25 14:32:21;;;;;;;1.00;0.77;;;;;;;;;;4953460;29;20534;-70
2021/05/25 14:34:47;;;;;;;0.87;0.63;;;;;;;;;;4953972;29;20415;-69
2021/05/25 14:37:13;;;;;;;2.13;0.73;;;;;;;;;;4936776;29;20547;-71
2021/05/25 14:42:42;;;;;;;2.40;0.60;;;;;;;;;;4952474;29;20493;-70
2021/05/25 14:45:09;;;;;;;1.17;0.40;;;;;;;;;;4952517;29;20886;-69
2021/05/25 14:47:35;;;;;;;3.07;0.50;;;;;;;;;;4952823;29;20906;-70
2021/05/25 14:50:21;;;;;;;1.43;0.63;;;;;;;;;;4952426;29;20428;-70
2021/05/25 14:52:52;;;;;;;1.50;0.77;;;;;;;;;;4953055;29;20427;-68
2021/05/25 14:55:23;;;;;;;2.37;0.83;;;;;;;;;;4936494;29;20455;-70
2021/05/25 14:57:49;;;;;;;1.43;0.60;;;;;;;;;;4936320;29;20629;-69
2021/05/25 15:00:17;;;;;;;1.60;0.63;;;;;;;;;;4952938;29;20415;-70
2021/05/25 15:02:57;;;;;;;0.70;0.60;;;;;;;;;;4952853;29;20479;-71
2021/05/25 15:08:01;;;;;;;0.60;0.60;;;;;;;;;;4953511;29;20437;-69
2021/05/25 15:10:27;;;;;;;1.17;0.50;;;;;;;;;;4954080;29;20410;-70
2021/05/25 15:12:53;;;;;;;2.80;0.60;;;;;;;;;;4936868;29;20427;-71
2021/05/25 15:15:20;;;;;;;1.00;0.70;;;;;;;;;;4954029;29;20411;-71
2021/05/25 15:17:46;;;;;;;1.07;0.60;;;;;;;;;;4954271;29;20419;-71
2021/05/25 15:20:13;;;;;;;1.00;0.90;;;;;;;;;;4954237;29;20419;-71
2021/05/25 15:22:39;;;;;;;2.03;0.50;;;;;;;;;;4952963;28;20530;-70
2021/05/25 15:28:10;;;;;;;1.70;0.70;;;;;;;;;;4952234;29;20414;-69
2021/05/25 15:30:37;;;;;;;5.73;1.03;;;;;;;;;;4952276;29;20424;-70
2021/05/25 15:33:04;;;;;;;4.03;1.10;;;;;;;;;;4934914;29;20938;-71
2021/05/25 15:35:30;;;;;;;0.90;0.50;;;;;;;;;;4951599;29;20447;-70
2021/05/25 15:37:57;;;;;;;4.60;0.80;;;;;;;;;;4952073;29;20481;-69
2021/05/25 15:43:27;;;;;;;2.50;0.93;;;;;;;;;;4952089;29;21033;-71
2021/05/25 15:45:53;;;;;;;2.70;0.70;;;;;;;;;;4951557;29;20918;-70
2021/05/25 15:48:20;;;;;;;2.03;0.73;;;;;;;;;;4934369;29;20561;-69
2021/05/25 15:50:47;;;;;;;2.37;0.63;;;;;;;;;;4951665;29;20416;-70
2021/05/25 15:53:14;;;;;;;1.67;0.60;;;;;;;;;;4951569;29;20416;-70
2021/05/25 15:55:41;;;;;;;4.90;0.70;;;;;;;;;;4951829;29;20813;-71
2021/05/25 15:58:08;;;;;;;1.20;0.53;;;;;;;;;;4952007;29;20432;-74
2021/05/25 16:00:36;;;;;;;1.47;0.93;;;;;;;;;;4948395;29;20427;-75
2021/05/25 16:03:03;;;;;;;2.47;0.63;;;;;;;;;;4949907;29;20534;-76
2021/05/25 16:05:29;;;;;;;1.90;0.80;;;;;;;;;;4933158;29;21003;-75
2021/05/25 16:07:56;;;;;;;5.90;1.10;;;;;;;;;;4951160;29;20786;-75
2021/05/25 16:13:26;;;;;;;0.90;0.50;;;;;;;;;;4952768;29;20458;-76
2021/05/25 16:15:52;;;;;;;1.83;0.50;;;;;;;;;;4951595;29;20942;-77
2021/05/25 16:18:18;;;;;;;1.60;0.77;;;;;;;;;;4952237;29;20407;-77
2021/05/25 16:20:44;;;;;;;1.70;1.57;;;;;;;;;;4934901;29;20527;-76
2021/05/25 16:23:10;;;;;;;1.90;0.90;;;;;;;;;;4934441;29;20490;-76
2021/05/25 16:28:40;;;;;;;1.60;1.00;;;;;;;;;;4950890;29;20411;-75
2021/05/25 16:31:06;;;;;;;2.60;0.80;;;;;;;;;;4951158;29;20778;-79
2021/05/25 16:33:32;;;;;;;2.97;1.10;;;;;;;;;;4952083;29;20418;-77